Aeroporto :
LOGIN :

Iscrizione | Disclaimer

   EN    FR    IT 

 










Sommario :    VFR   VFR Marginale   IFR   IFR Intensivo   IFR Molto Intensivo
Visibilità : 
Base nubi : 
>= 8 km
>= 3000ft
5 / 8 km
1000 / 3000 ft
1500m / 5 km
500 / 1000 ft
800 / 1500m
200 / 500 ft
< 800m
< 200 ft
Simboli :   Temporali  Nebbia  Neve Forte  Precipitazioni Forti  Vento > 20 kt
SIGMETs :   Varie  Temporali  Ghiacco  Turbolenza  Onda orograficha  Ceneri Vulcaniche






- Altitudine del aeroporto : 49 ft
- Codice IATA : SEN


EGMC - Southend

ULTIMO METAR :
  • 201920Z 12013KT 9999 SCT021 05/02 Q1010

METARs OBSOLETI :
  • 201850Z 13010KT 9999 FEW021 05/02 Q1010
  • 201820Z 12013KT 9999 FEW022 05/02 Q1010
  • 201750Z 12014KT 9999 FEW027 05/01 Q1010
  • 201720Z 11014KT 9999 FEW027 05/01 Q1010
  • 201650Z 12014KT 9999 FEW026 05/01 Q1010

TAF TAF EGMC
Valido dal 20 a 18 ore il 21 a 03 ore UTC


201658Z 2018/2103 11008KT 9999 FEW030
BECMG 2023/2102 BKN012
PROB30
TEMPO 2102/2103 8000 BKN008



MetMap, La meteo Aeronautica in un colpo d'occhio ! - Copyright ORBIFLY Dicembre 2007 - Disclaimer

ORBIFLY MET'MAP TEAM :

Programmazione e sviluppo : Alexandra Zaïnal
Concezione e sviluppo : Baudouin d'Aumeries
Co-Programmazione e sviluppo : Marc-Olivier Méhu
Supporto tecnico e logistico : Manuel Goepfert
Aiuto per la traduzione : Arnaldo La Scala

Contatto : metmap@orbifly.com




FONTI E CREDITI :

   NOAA